This is the latest recevied weather packets stored in our database for station/object WP3OF-5. If no packets are shown the sender has not sent any weather packets the latest 10 day(s).
| Time | Temp. | Humidity | Pressure | Rain* | Wind** | Luminosity | Snow |
|---|---|---|---|---|---|---|---|
| 1778011102 | 30.56° C | 73% | 1015.6 hPa | 0 mm | - | - | - |
| 1778010799 | 30° C | 73% | 1015.7 hPa | 0 mm | - | - | - |
| 1778010496 | 29.44° C | 76% | 1015.7 hPa | 0 mm | - | - | - |
| 1778010193 | 30° C | 76% | 1015.9 hPa | 0 mm | - | - | - |
| 1778009888 | 31.11° C | 67% | 1015.8 hPa | 0 mm | - | - | - |
| 1778009587 | 32.22° C | 66% | 1015.8 hPa | 0 mm | - | - | - |
| 1778009285 | 31.67° C | 66% | 1015.8 hPa | 0 mm | - | - | - |
| 1778008982 | 31.67° C | 66% | 1015.8 hPa | 0 mm | - | - | - |
| 1778008680 | 31.67° C | 67% | 1016.1 hPa | 0 mm | - | - | - |
| 1778008378 | 31.67° C | 68% | 1015.9 hPa | 0 mm | - | - | - |
| 1778008074 | 32.22° C | 65% | 1015.7 hPa | 0 mm | - | - | - |
| 1778007769 | 32.22° C | 64% | 1016.2 hPa | 0 mm | - | - | - |
| 1778007466 | 32.22° C | 66% | 1016.1 hPa | 0 mm | - | - | - |
| 1778007163 | 32.22° C | 63% | 1016.3 hPa | 0 mm | - | - | - |
| 1778006858 | 32.22° C | 65% | 1016.1 hPa | 0 mm | - | - | - |
| 1778006556 | 32.78° C | 61% | 1016.1 hPa | 0 mm | - | - | - |
| 1778006253 | 34.44° C | 57% | 1016.2 hPa | 0 mm | - | - | - |
| 1778005950 | 33.89° C | 60% | 1016.4 hPa | 0 mm | - | - | - |
| 1778005646 | 32.22° C | 64% | 1016.4 hPa | 0 mm | - | - | - |
| 1778005344 | 32.78° C | 64% | 1016.3 hPa | 0 mm | - | - | - |
| 1778005040 | 32.22° C | 64% | 1016.6 hPa | 0 mm | - | - | - |
| 1778004737 | 32.78° C | 65% | 1016.5 hPa | 0 mm | - | - | - |
| 1778004434 | 32.22° C | 66% | 1016.6 hPa | 0 mm | - | - | - |
| 1778004130 | 30.56° C | 71% | 1016.6 hPa | 0 mm | - | - | - |
| 1778003826 | 30° C | 73% | 1016.8 hPa | 0 mm | - | - | - |
* Rain latest hour (hover to see other rain measurements)
** Current wind speed in m/s (hover to see current wind gust speed)